Time;durP1;ratioP1;P1;durP2;ratioP2;P2;SDS_P1;SDS_P2;PMS_P1;PMS_P2;Temp;Humidity;BMP_temperature;BMP_pressure;BME280_temperature;BME280_humidity;BME280_pressure;Samples;Min_cycle;Max_cycle;Signal;HPM_P1;HPM_P2
2022/04/30 00:01:24;;;;;;;5.85;4.88;;;13.30;93.90;;;;;;4957698;28;20690;-74
2022/04/30 00:03:50;;;;;;;5.03;4.60;;;13.20;94.30;;;;;;4975428;28;20211;-74
2022/04/30 00:06:16;;;;;;;5.47;4.97;;;13.20;94.00;;;;;;4958170;28;20176;-74
2022/04/30 00:08:42;;;;;;;5.43;4.93;;;13.20;94.10;;;;;;4975020;28;20195;-74
2022/04/30 00:11:08;;;;;;;4.93;4.43;;;13.10;94.20;;;;;;4975091;28;20182;-74
2022/04/30 00:13:37;;;;;;;5.20;4.70;;;13.10;94.20;;;;;;4975544;28;20160;-74
2022/04/30 00:16:03;;;;;;;5.85;5.03;;;13.10;94.30;;;;;;4975019;28;20187;-74
2022/04/30 00:18:28;;;;;;;6.05;5.43;;;13.00;94.30;;;;;;4957407;28;20175;-74
2022/04/30 00:20:57;;;;;;;6.40;4.80;;;13.00;94.50;;;;;;4974937;28;20691;-74
2022/04/30 00:23:23;;;;;;;5.88;5.30;;;13.00;94.60;;;;;;4958000;28;20175;-74
2022/04/30 00:25:51;;;;;;;8.10;5.10;;;12.90;94.60;;;;;;4957821;28;20543;-74
2022/04/30 00:28:19;;;;;;;5.82;5.22;;;12.90;94.70;;;;;;4974583;28;20595;-74
2022/04/30 00:30:46;;;;;;;7.07;5.53;;;12.80;94.70;;;;;;4973765;28;20172;-74
2022/04/30 00:33:11;;;;;;;5.28;3.58;;;12.80;94.80;;;;;;4974947;28;20168;-74
2022/04/30 00:35:37;;;;;;;5.07;4.50;;;12.80;94.90;;;;;;4975203;28;20180;-74
2022/04/30 00:38:04;;;;;;;6.30;5.50;;;12.80;95.00;;;;;;4974616;28;20622;-74
2022/04/30 00:40:29;;;;;;;7.25;5.40;;;12.70;95.00;;;;;;4974396;28;20648;-74
2022/04/30 00:42:55;;;;;;;7.67;5.30;;;12.70;95.10;;;;;;4957717;28;20254;-74
2022/04/30 00:45:21;;;;;;;6.60;4.43;;;12.70;95.20;;;;;;4974622;28;20168;-74
2022/04/30 00:47:47;;;;;;;5.80;4.43;;;12.70;95.20;;;;;;4974369;28;20491;-74
2022/04/30 00:50:15;;;;;;;5.25;4.75;;;12.60;95.30;;;;;;4974269;28;20187;-74
2022/04/30 00:52:44;;;;;;;7.35;4.78;;;12.60;95.40;;;;;;4974715;28;20183;-74
2022/04/30 00:55:11;;;;;;;5.05;4.55;;;12.60;95.50;;;;;;4974769;28;20175;-74
2022/04/30 00:57:40;;;;;;;7.65;4.45;;;12.50;95.50;;;;;;4974042;28;20221;-74
2022/04/30 01:00:07;;;;;;;5.97;5.32;;;12.50;95.60;;;;;;4973923;28;20203;-74
2022/04/30 01:02:44;;;;;;;6.88;4.93;;;12.50;95.70;;;;;;4957264;28;20175;-74
2022/04/30 01:05:28;;;;;;;5.20;4.72;;;12.50;95.80;;;;;;4974320;28;20219;-74
2022/04/30 01:07:54;;;;;;;6.93;5.10;;;12.40;95.80;;;;;;4973987;28;20183;-74
2022/04/30 01:10:20;;;;;;;5.40;4.70;;;12.40;95.90;;;;;;4956935;28;20188;-74
2022/04/30 01:12:47;;;;;;;6.20;5.57;;;12.40;96.00;;;;;;4974240;28;20178;-74
2022/04/30 01:15:12;;;;;;;4.82;4.00;;;12.30;96.20;;;;;;4974382;28;20175;-74
2022/04/30 01:17:40;;;;;;;7.43;5.40;;;12.30;96.20;;;;;;4973842;28;20195;-74
2022/04/30 01:20:07;;;;;;;6.20;5.65;;;12.30;96.30;;;;;;4972357;28;20208;-75
2022/04/30 01:22:38;;;;;;;5.55;4.90;;;12.30;96.50;;;;;;4966087;28;20602;-74
2022/04/30 01:25:04;;;;;;;5.30;4.80;;;12.20;96.50;;;;;;4974415;28;20183;-75
2022/04/30 01:27:30;;;;;;;6.50;4.82;;;12.20;96.50;;;;;;4956659;28;20171;-75
2022/04/30 01:29:59;;;;;;;8.10;5.13;;;12.10;96.50;;;;;;4973877;28;20223;-75
2022/04/30 01:38:01;;;;;;;7.93;5.57;;;12.00;96.90;;;;;;4973918;28;20660;-74
2022/04/30 01:40:29;;;;;;;5.47;4.93;;;11.90;97.10;;;;;;4973971;28;20234;-74
2022/04/30 01:42:58;;;;;;;6.20;4.93;;;11.90;97.20;;;;;;4973758;28;20168;-74
2022/04/30 01:45:24;;;;;;;6.47;4.75;;;11.90;97.30;;;;;;4974595;28;20199;-74
2022/04/30 01:47:52;;;;;;;7.88;6.00;;;11.90;97.50;;;;;;4973567;28;20210;-74
2022/04/30 01:50:17;;;;;;;5.70;4.93;;;11.80;97.50;;;;;;4973499;28;20183;-74
2022/04/30 01:52:43;;;;;;;6.90;4.53;;;11.80;97.70;;;;;;4974031;28;20182;-74
2022/04/30 01:55:10;;;;;;;6.50;4.70;;;11.80;97.70;;;;;;4974266;28;20567;-74
2022/04/30 01:57:41;;;;;;;8.23;6.10;;;11.80;97.90;;;;;;4973052;28;20264;-74
2022/04/30 02:00:14;;;;;;;6.40;5.80;;;11.70;98.00;;;;;;4973544;28;20205;-74
2022/04/30 02:02:45;;;;;;;6.18;4.95;;;11.70;98.00;;;;;;4973808;28;20230;-74
2022/04/30 02:05:13;;;;;;;6.15;5.20;;;11.60;98.10;;;;;;4973805;28;20180;-74
2022/04/30 02:07:49;;;;;;;9.10;6.00;;;11.60;98.20;;;;;;4973023;28;20536;-74
2022/04/30 02:10:18;;;;;;;6.55;5.82;;;11.50;98.40;;;;;;4973049;28;20234;-74
2022/04/30 02:12:44;;;;;;;7.97;6.07;;;11.40;98.30;;;;;;4973207;28;20567;-74
2022/04/30 02:15:14;;;;;;;6.63;4.77;;;11.40;98.60;;;;;;4973509;28;20258;-74
2022/04/30 02:17:41;;;;;;;6.70;5.50;;;11.40;98.90;;;;;;4972712;28;20681;-74
2022/04/30 02:20:29;;;;;;;7.18;5.82;;;11.30;98.90;;;;;;4971635;28;20199;-75
2022/04/30 02:22:58;;;;;;;6.57;5.32;;;11.30;99.10;;;;;;4973207;28;20706;-75
2022/04/30 02:25:25;;;;;;;7.32;4.72;;;11.30;99.30;;;;;;4973095;28;20226;-75
2022/04/30 02:27:56;;;;;;;6.18;4.65;;;11.20;99.30;;;;;;4972598;28;20168;-75
2022/04/30 02:30:23;;;;;;;9.45;5.85;;;11.20;99.40;;;;;;4955687;28;20192;-75
2022/04/30 02:32:57;;;;;;;5.25;4.75;;;11.20;99.50;;;;;;4973303;28;20183;-75
2022/04/30 02:35:26;;;;;;;7.60;5.22;;;11.10;99.60;;;;;;4956001;28;20172;-74
2022/04/30 02:37:56;;;;;;;6.40;5.30;;;11.10;99.60;;;;;;4972598;28;20302;-74
2022/04/30 02:40:24;;;;;;;5.40;3.83;;;11.00;99.70;;;;;;4972488;28;20282;-75
2022/04/30 02:42:51;;;;;;;6.43;5.75;;;11.00;99.80;;;;;;4972973;28;20163;-75
2022/04/30 02:45:18;;;;;;;6.80;5.60;;;10.90;99.80;;;;;;4972943;28;20168;-75
2022/04/30 02:47:52;;;;;;;5.85;5.25;;;10.90;99.90;;;;;;4955412;28;20210;-74
2022/04/30 02:50:19;;;;;;;8.48;5.95;;;10.80;99.90;;;;;;4955068;28;20203;-75
2022/04/30 02:52:45;;;;;;;8.85;5.30;;;10.80;99.90;;;;;;4972646;28;20687;-74
2022/04/30 02:55:12;;;;;;;6.07;5.47;;;10.70;99.90;;;;;;4972526;28;20168;-74
2022/04/30 02:59:53;;;;;;;7.50;5.55;;;10.60;99.90;;;;;;4972446;28;20203;-75
2022/04/30 03:00:53;;;;;;;7.93;6.22;;;10.60;99.90;;;;;;4946542;28;20259;-75
2022/04/30 03:03:31;;;;;;;6.78;5.82;;;10.50;99.90;;;;;;4934449;29;20196;-75
2022/04/30 03:05:57;;;;;;;7.32;5.05;;;10.50;99.90;;;;;;4934405;29;20200;-75
2022/04/30 03:08:26;;;;;;;6.75;6.05;;;10.50;99.90;;;;;;4932537;29;20212;-75
2022/04/30 03:10:54;;;;;;;6.38;5.53;;;10.50;99.90;;;;;;4933773;29;20200;-74
2022/04/30 03:13:20;;;;;;;7.32;5.85;;;10.40;99.90;;;;;;4934239;29;20216;-74
2022/04/30 03:15:50;;;;;;;7.25;5.70;;;10.40;99.90;;;;;;4933091;29;20308;-75
2022/04/30 03:23:41;;;;;;;9.07;5.43;;;10.30;99.90;;;;;;4953103;28;20211;-74
2022/04/30 03:26:08;;;;;;;10.37;6.17;;;10.30;99.90;;;;;;4953264;28;20188;-74
2022/04/30 03:28:37;;;;;;;6.95;6.25;;;10.20;99.90;;;;;;4935392;28;20192;-74
2022/04/30 03:31:04;;;;;;;6.22;5.50;;;10.10;99.90;;;;;;4935626;29;20184;-74
2022/04/30 03:33:30;;;;;;;7.53;5.35;;;10.10;99.90;;;;;;4953245;29;20264;-75
2022/04/30 03:35:56;;;;;;;6.85;6.15;;;10.10;99.90;;;;;;4935778;29;20168;-74
2022/04/30 03:38:21;;;;;;;9.00;6.00;;;10.00;99.90;;;;;;4952426;28;20265;-74
2022/04/30 03:40:47;;;;;;;6.43;4.60;;;10.00;99.90;;;;;;4952904;28;20215;-74
2022/04/30 03:43:14;;;;;;;9.47;5.43;;;10.00;99.90;;;;;;4936072;28;20267;-75
2022/04/30 03:45:41;;;;;;;7.35;5.28;;;9.90;99.90;;;;;;4953069;28;20172;-75
2022/04/30 03:48:07;;;;;;;10.40;6.00;;;9.90;99.90;;;;;;4952687;28;20540;-74
2022/04/30 03:50:33;;;;;;;7.97;6.22;;;9.80;99.90;;;;;;4952624;28;20191;-74
2022/04/30 03:52:58;;;;;;;10.80;6.37;;;9.80;99.90;;;;;;4952878;28;20259;-74
2022/04/30 03:55:25;;;;;;;5.60;4.87;;;9.80;99.90;;;;;;4952894;28;20179;-74
2022/04/30 03:57:50;;;;;;;8.00;6.05;;;9.70;99.90;;;;;;4952561;28;20709;-75
2022/04/30 04:00:17;;;;;;;8.17;5.97;;;9.70;99.90;;;;;;4952718;28;20192;-75
2022/04/30 04:02:44;;;;;;;9.90;6.15;;;9.70;99.90;;;;;;4953169;28;20184;-74
2022/04/30 04:05:12;;;;;;;7.50;6.43;;;9.70;99.90;;;;;;4937444;29;20172;-75
2022/04/30 04:07:42;;;;;;;7.13;5.85;;;9.60;99.90;;;;;;4955890;28;20165;-75
2022/04/30 04:10:09;;;;;;;7.35;5.20;;;9.60;99.90;;;;;;4956070;28;20194;-75
2022/04/30 04:12:39;;;;;;;8.65;6.70;;;9.60;99.90;;;;;;4956257;28;20267;-74
2022/04/30 04:17:51;;;;;;;4.93;4.43;;;9.60;99.90;;;;;;4955642;28;20207;-75
2022/04/30 04:20:24;;;;;;;6.40;5.03;;;9.60;99.90;;;;;;4963469;28;20215;-75
2022/04/30 04:22:54;;;;;;;10.35;6.40;;;9.60;99.90;;;;;;4972047;28;20503;-74
2022/04/30 04:28:04;;;;;;;5.70;4.38;;;9.70;99.90;;;;;;4957794;28;20180;-74
2022/04/30 04:30:32;;;;;;;6.03;5.43;;;9.70;99.90;;;;;;4974932;28;20192;-75
2022/04/30 04:32:59;;;;;;;6.40;5.10;;;9.80;99.90;;;;;;4975319;28;20184;-75
2022/04/30 04:35:25;;;;;;;6.80;4.82;;;9.80;99.90;;;;;;4975426;28;20168;-75
2022/04/30 04:37:51;;;;;;;6.30;4.95;;;9.90;99.90;;;;;;4974452;28;20210;-74
2022/04/30 04:40:18;;;;;;;8.52;5.75;;;9.90;99.90;;;;;;4974712;28;20184;-75
2022/04/30 04:42:45;;;;;;;6.47;4.90;;;10.00;99.90;;;;;;4957746;28;20274;-75
2022/04/30 04:45:12;;;;;;;6.28;4.68;;;10.00;99.90;;;;;;4975089;28;20171;-75
2022/04/30 04:47:40;;;;;;;7.28;4.70;;;10.10;99.90;;;;;;4941448;28;20640;-75
2022/04/30 04:50:12;;;;;;;5.97;4.40;;;10.10;99.90;;;;;;4957178;28;20561;-74
2022/04/30 04:52:41;;;;;;;8.75;5.03;;;10.10;99.90;;;;;;4957554;28;20270;-75
2022/04/30 04:55:08;;;;;;;6.60;5.20;;;10.20;99.90;;;;;;4974862;28;20214;-75
2022/04/30 04:57:33;;;;;;;7.10;4.95;;;10.20;99.90;;;;;;4974356;28;20206;-74
2022/04/30 04:59:59;;;;;;;6.10;5.03;;;10.20;99.90;;;;;;4974239;28;20180;-74
2022/04/30 05:02:25;;;;;;;6.50;4.60;;;10.30;99.90;;;;;;4974922;28;20167;-74
2022/04/30 05:04:51;;;;;;;7.15;5.32;;;10.40;99.90;;;;;;4974531;28;20168;-74
2022/04/30 05:07:17;;;;;;;6.10;5.50;;;10.40;99.90;;;;;;4974571;28;20179;-74
2022/04/30 05:09:43;;;;;;;6.50;5.75;;;10.40;99.90;;;;;;4956502;28;20199;-75
2022/04/30 05:12:09;;;;;;;6.70;5.13;;;10.50;99.90;;;;;;4974656;28;20172;-75
2022/04/30 05:14:35;;;;;;;7.22;6.53;;;10.50;99.90;;;;;;4974548;28;20926;-75
2022/04/30 05:17:02;;;;;;;6.97;4.87;;;10.50;99.90;;;;;;4974077;28;20204;-75
2022/04/30 05:19:28;;;;;;;7.40;5.93;;;10.60;99.90;;;;;;4956078;28;20191;-75
2022/04/30 05:21:54;;;;;;;6.37;5.10;;;10.60;99.90;;;;;;4974141;28;20174;-75
2022/04/30 05:24:20;;;;;;;7.70;5.53;;;10.70;99.90;;;;;;4941078;28;20262;-74
2022/04/30 05:26:47;;;;;;;7.40;5.73;;;10.80;99.90;;;;;;4957157;28;20203;-75
2022/04/30 05:29:13;;;;;;;6.10;5.35;;;10.80;99.90;;;;;;4973796;28;20595;-75
2022/04/30 05:31:39;;;;;;;5.93;4.63;;;10.90;99.90;;;;;;4973854;28;20168;-74
2022/04/30 05:34:05;;;;;;;6.30;5.23;;;10.90;99.90;;;;;;4973954;28;20179;-75
2022/04/30 05:36:31;;;;;;;8.10;4.63;;;11.00;99.90;;;;;;4974158;28;20213;-75
2022/04/30 05:38:56;;;;;;;5.00;4.10;;;11.00;99.90;;;;;;4973641;28;20196;-74
2022/04/30 05:41:22;;;;;;;5.90;5.33;;;11.10;99.90;;;;;;4934922;28;20607;-74
2022/04/30 05:43:48;;;;;;;6.43;5.10;;;11.10;99.90;;;;;;4951190;29;20206;-74
2022/04/30 05:46:14;;;;;;;5.90;5.00;;;11.20;99.90;;;;;;4954639;28;20905;-74
2022/04/30 05:48:40;;;;;;;8.33;5.10;;;11.30;99.90;;;;;;4953937;28;20196;-74
2022/04/30 05:51:05;;;;;;;6.25;5.65;;;11.30;99.90;;;;;;4937251;29;20169;-75
2022/04/30 05:53:31;;;;;;;6.73;5.20;;;11.40;99.90;;;;;;4954430;28;20168;-74
2022/04/30 05:55:57;;;;;;;5.97;4.88;;;11.40;99.90;;;;;;4954615;28;20647;-74
2022/04/30 05:58:23;;;;;;;6.00;4.50;;;11.50;99.90;;;;;;4954022;28;20715;-74
2022/04/30 06:00:50;;;;;;;5.85;5.28;;;11.50;99.90;;;;;;4953905;29;20539;-75
2022/04/30 06:03:15;;;;;;;5.13;4.43;;;11.60;99.90;;;;;;4953967;28;20168;-74
2022/04/30 06:05:41;;;;;;;10.05;4.63;;;11.70;99.90;;;;;;4954261;28;20579;-74
2022/04/30 06:08:08;;;;;;;5.13;3.90;;;11.70;99.90;;;;;;4953469;28;20164;-75
2022/04/30 06:10:34;;;;;;;4.53;3.80;;;11.80;99.90;;;;;;4936834;29;20279;-75
2022/04/30 06:13:00;;;;;;;6.65;4.22;;;11.90;99.90;;;;;;4954199;28;20260;-75
2022/04/30 06:15:28;;;;;;;5.00;3.90;;;11.90;99.90;;;;;;4936901;28;20176;-75
2022/04/30 06:17:53;;;;;;;4.75;4.13;;;12.00;99.90;;;;;;4936228;29;20204;-74
2022/04/30 06:20:19;;;;;;;5.37;4.50;;;12.10;99.90;;;;;;4953809;28;20259;-75
2022/04/30 06:22:45;;;;;;;5.97;4.33;;;12.20;99.90;;;;;;4937262;29;20176;-75
2022/04/30 06:25:11;;;;;;;5.57;3.90;;;12.20;99.90;;;;;;4955241;28;20164;-75
2022/04/30 06:27:37;;;;;;;5.82;3.65;;;12.50;99.90;;;;;;4963223;28;20175;-74
2022/04/30 06:30:06;;;;;;;3.85;3.50;;;12.80;99.90;;;;;;4963830;28;20254;-74
2022/04/30 06:32:32;;;;;;;3.40;3.10;;;13.10;99.90;;;;;;4964962;28;20182;-74
2022/04/30 06:34:58;;;;;;;5.70;4.20;;;13.50;99.90;;;;;;4973203;28;20220;-75
2022/04/30 06:37:23;;;;;;;4.87;3.70;;;13.90;99.90;;;;;;4955730;28;20677;-74
2022/04/30 06:39:50;;;;;;;6.00;3.53;;;14.30;99.90;;;;;;4972385;28;20607;-75
2022/04/30 06:42:15;;;;;;;5.20;3.50;;;14.90;99.90;;;;;;4955652;28;20225;-75
2022/04/30 06:44:41;;;;;;;8.33;5.20;;;15.20;99.90;;;;;;4973031;28;20179;-75
2022/04/30 06:47:07;;;;;;;5.00;3.17;;;15.50;99.90;;;;;;4972901;28;20171;-75
2022/04/30 06:49:33;;;;;;;4.37;2.63;;;15.90;99.90;;;;;;4972666;28;20218;-75
2022/04/30 06:51:58;;;;;;;4.37;3.30;;;16.20;99.90;;;;;;4955310;28;20174;-75
2022/04/30 06:57:11;;;;;;;5.03;3.00;;;16.40;99.90;;;;;;4948891;28;20200;-75
2022/04/30 06:59:41;;;;;;;3.60;3.20;;;16.70;99.90;;;;;;4951609;28;21094;-75
2022/04/30 07:02:17;;;;;;;2.60;2.40;;;16.90;99.90;;;;;;4953160;28;20568;-75
2022/04/30 07:04:46;;;;;;;3.90;2.30;;;17.00;99.90;;;;;;4953528;28;20579;-75
2022/04/30 07:07:13;;;;;;;4.00;2.27;;;17.10;99.90;;;;;;4945236;28;20596;-75
2022/04/30 07:09:39;;;;;;;4.47;2.70;;;17.40;99.90;;;;;;4952551;28;20714;-75
2022/04/30 07:12:07;;;;;;;4.87;1.90;;;17.60;99.90;;;;;;4936236;28;21030;-75
2022/04/30 07:14:37;;;;;;;4.10;2.90;;;17.60;99.40;;;;;;4941687;28;20638;-74
2022/04/30 07:17:11;;;;;;;3.57;2.50;;;17.50;98.20;;;;;;4953134;28;20619;-74
2022/04/30 07:19:37;;;;;;;4.17;2.33;;;17.30;97.40;;;;;;4952467;28;21053;-74
2022/04/30 07:22:04;;;;;;;8.80;3.53;;;17.10;97.60;;;;;;4936319;28;21004;-74
2022/04/30 07:24:33;;;;;;;2.97;2.30;;;17.00;97.60;;;;;;4936241;29;20686;-74
2022/04/30 07:26:59;;;;;;;4.63;3.50;;;16.80;97.20;;;;;;4953520;29;20584;-74
2022/04/30 07:29:25;;;;;;;4.93;3.80;;;16.60;96.90;;;;;;4952808;28;20200;-74
2022/04/30 07:31:50;;;;;;;5.70;3.13;;;16.30;96.50;;;;;;4952824;28;20690;-75
2022/04/30 07:34:16;;;;;;;5.30;3.07;;;16.00;96.40;;;;;;4995877;23;20571;-75
2022/04/30 07:36:42;;;;;;;6.03;3.70;;;15.80;96.60;;;;;;4954833;28;20203;-74
2022/04/30 07:39:08;;;;;;;5.73;3.40;;;15.60;96.80;;;;;;4974021;28;20164;-73
2022/04/30 07:41:35;;;;;;;3.73;3.30;;;15.60;97.60;;;;;;4976039;28;20624;-76
2022/04/30 07:44:01;;;;;;;4.00;3.60;;;15.70;97.60;;;;;;4958982;28;20606;-74
2022/04/30 07:46:27;;;;;;;5.87;3.50;;;15.70;97.60;;;;;;4976126;28;20665;-74
2022/04/30 07:48:52;;;;;;;3.60;2.80;;;15.80;97.70;;;;;;4975734;28;20634;-77
2022/04/30 07:51:34;;;;;;;3.50;2.97;;;15.80;97.90;;;;;;4958529;28;20203;-73
2022/04/30 07:54:02;;;;;;;6.73;3.33;;;15.80;97.60;;;;;;4958733;28;20625;-74
2022/04/30 07:56:28;;;;;;;4.27;2.70;;;15.80;97.40;;;;;;4958624;28;20622;-73
2022/04/30 07:58:57;;;;;;;10.43;3.37;;;15.90;97.40;;;;;;4975090;28;20590;-73
2022/04/30 08:01:22;;;;;;;4.70;3.43;;;15.90;97.30;;;;;;4975889;28;20152;-73
2022/04/30 08:03:48;;;;;;;5.00;3.27;;;15.90;97.30;;;;;;4976074;28;21354;-73
2022/04/30 08:06:14;;;;;;;4.83;2.17;;;16.00;97.20;;;;;;4942658;28;20186;-73
2022/04/30 08:08:40;;;;;;;3.77;2.23;;;16.10;97.40;;;;;;4958700;28;20590;-73
2022/04/30 08:11:13;;;;;;;3.10;1.90;;;16.40;98.00;;;;;;4958350;28;20574;-73
2022/04/30 08:13:43;;;;;;;2.63;2.07;;;17.10;99.30;;;;;;4958832;28;20594;-74
2022/04/30 08:16:12;;;;;;;6.00;2.03;;;18.10;99.90;;;;;;4942567;28;20581;-74
2022/04/30 08:18:38;;;;;;;5.23;1.70;;;19.00;99.40;;;;;;4975232;28;20254;-73
2022/04/30 08:21:06;;;;;;;4.40;1.83;;;20.10;99.80;;;;;;4958198;28;20575;-73
2022/04/30 08:23:33;;;;;;;4.60;2.57;;;21.20;99.10;;;;;;4975512;28;20634;-74
2022/04/30 08:25:59;;;;;;;3.37;1.90;;;22.10;95.60;;;;;;4975735;28;20567;-74
2022/04/30 08:28:25;;;;;;;4.20;1.70;;;23.10;95.50;;;;;;4957663;28;20574;-75
2022/04/30 08:30:50;;;;;;;3.10;1.53;;;24.00;94.60;;;;;;4975455;28;20630;-74
2022/04/30 08:33:19;;;;;;;3.00;1.40;;;24.80;93.30;;;;;;4956864;28;20274;-74
2022/04/30 08:35:45;;;;;;;2.40;1.53;;;25.40;92.50;;;;;;4956426;28;20207;-74
2022/04/30 08:38:11;;;;;;;2.37;1.10;;;25.60;87.70;;;;;;4940336;28;21027;-74
2022/04/30 08:40:42;;;;;;;2.13;1.43;;;25.50;82.20;;;;;;4973803;28;20625;-74
2022/04/30 08:43:15;;;;;;;3.03;1.37;;;25.50;78.50;;;;;;4956406;28;20172;-74
2022/04/30 08:45:45;;;;;;;3.20;1.80;;;25.50;77.40;;;;;;4954829;28;20570;-77
2022/04/30 08:48:14;;;;;;;3.00;1.70;;;25.30;74.40;;;;;;4966960;28;20623;-74
2022/04/30 08:50:41;;;;;;;2.27;1.20;;;24.90;71.20;;;;;;4973818;28;20605;-74
2022/04/30 08:53:07;;;;;;;3.53;1.40;;;24.50;72.10;;;;;;4973273;28;20650;-74
2022/04/30 08:55:33;;;;;;;2.90;1.47;;;24.60;72.20;;;;;;4952156;28;20955;-73
2022/04/30 08:57:59;;;;;;;4.33;1.50;;;24.80;72.40;;;;;;4973455;28;20734;-73
2022/04/30 09:00:26;;;;;;;2.40;1.40;;;25.20;72.70;;;;;;4957071;28;20601;-73
2022/04/30 09:02:59;;;;;;;2.53;1.50;;;25.70;73.80;;;;;;4974223;28;20579;-75
2022/04/30 09:05:34;;;;;;;1.80;1.20;;;26.20;71.70;;;;;;4974723;28;21185;-75
2022/04/30 09:08:01;;;;;;;2.10;1.40;;;26.50;67.50;;;;;;4973977;28;21005;-76
2022/04/30 09:10:31;;;;;;;2.20;1.17;;;26.90;67.20;;;;;;4974218;28;20567;-76
2022/04/30 09:13:27;;;;;;;1.67;1.10;;;26.90;65.50;;;;;;4940222;28;21168;-74
2022/04/30 09:15:55;;;;;;;2.77;1.70;;;27.10;63.80;;;;;;4958362;28;20603;-75
2022/04/30 09:18:21;;;;;;;4.30;1.20;;;27.50;64.60;;;;;;4956404;28;20639;-75
2022/04/30 09:20:53;;;;;;;2.93;1.20;;;27.90;64.30;;;;;;4957044;28;20689;-75
2022/04/30 09:23:26;;;;;;;2.07;1.00;;;28.10;62.30;;;;;;4974137;28;20623;-75
2022/04/30 09:25:57;;;;;;;1.80;1.30;;;28.10;60.30;;;;;;4974181;28;20567;-75
2022/04/30 09:28:28;;;;;;;2.93;0.93;;;28.00;58.10;;;;;;4956183;28;20621;-75
2022/04/30 09:31:04;;;;;;;2.37;1.57;;;27.90;57.80;;;;;;4940435;28;20594;-75
2022/04/30 09:33:30;;;;;;;2.40;1.07;;;27.90;57.00;;;;;;4956329;28;20615;-75
2022/04/30 09:38:47;;;;;;;3.77;1.17;;;28.20;56.30;;;;;;4973252;28;20187;-75
2022/04/30 09:41:12;;;;;;;2.43;1.20;;;28.40;57.40;;;;;;4973380;28;21025;-74
2022/04/30 09:43:38;;;;;;;2.20;1.20;;;28.50;55.60;;;;;;4956391;28;20642;-74
2022/04/30 09:46:08;;;;;;;2.63;1.00;;;28.30;54.30;;;;;;4956659;28;20171;-73
2022/04/30 09:54:03;;;;;;;2.43;1.10;;;28.10;53.40;;;;;;4956141;28;20639;-73
2022/04/30 09:56:36;;;;;;;5.17;1.13;;;28.00;52.10;;;;;;4973292;28;20677;-74
2022/04/30 09:59:07;;;;;;;3.10;0.90;;;28.00;52.40;;;;;;4971932;28;20630;-73
2022/04/30 10:01:37;;;;;;;1.80;1.07;;;28.30;52.50;;;;;;4971919;28;20598;-73
2022/04/30 10:04:13;;;;;;;1.93;0.80;;;28.50;51.10;;;;;;4968750;28;20994;-73
2022/04/30 10:06:51;;;;;;;2.70;1.20;;;28.50;51.00;;;;;;4973215;28;20907;-74
2022/04/30 10:09:38;;;;;;;2.77;0.97;;;28.20;50.00;;;;;;4955097;28;20594;-74
2022/04/30 10:12:18;;;;;;;1.60;1.00;;;27.90;49.20;;;;;;4972835;28;20578;-74
2022/04/30 10:14:53;;;;;;;1.60;0.90;;;27.80;50.20;;;;;;4955457;28;20649;-74
2022/04/30 10:17:23;;;;;;;1.90;1.00;;;27.90;50.50;;;;;;4955451;28;20633;-74
2022/04/30 10:20:12;;;;;;;2.07;1.20;;;28.20;50.90;;;;;;4954637;28;20574;-74
2022/04/30 10:22:49;;;;;;;2.10;0.90;;;28.50;50.40;;;;;;4972685;28;20575;-74
2022/04/30 10:25:15;;;;;;;3.30;1.00;;;28.80;50.30;;;;;;4972991;28;20596;-74
2022/04/30 10:27:43;;;;;;;1.80;1.20;;;29.00;49.40;;;;;;4972981;28;20698;-74
2022/04/30 10:30:24;;;;;;;4.40;1.73;;;29.10;48.80;;;;;;4972918;28;20544;-74
2022/04/30 10:33:03;;;;;;;2.90;1.00;;;29.40;49.00;;;;;;4973257;28;21074;-74
2022/04/30 10:35:34;;;;;;;1.93;1.33;;;29.30;48.00;;;;;;4936859;29;21198;-74
2022/04/30 10:38:18;;;;;;;2.50;1.17;;;29.10;47.70;;;;;;4920208;29;21278;-75
2022/04/30 10:40:58;;;;;;;2.27;1.27;;;29.00;46.90;;;;;;4936487;29;20594;-76
2022/04/30 10:43:26;;;;;;;2.17;1.37;;;28.90;46.90;;;;;;4936501;29;20611;-76
2022/04/30 10:45:55;;;;;;;2.07;1.13;;;29.00;47.40;;;;;;4936474;29;20591;-76
2022/04/30 10:48:22;;;;;;;2.97;0.80;;;28.80;46.00;;;;;;4953154;28;20691;-76
2022/04/30 10:50:51;;;;;;;2.35;1.45;;;28.60;46.60;;;;;;4952191;28;20709;-73
2022/04/30 10:53:22;;;;;;;4.37;1.20;;;28.00;42.20;;;;;;4953247;28;20203;-74
2022/04/30 10:55:48;;;;;;;1.70;1.00;;;28.00;44.80;;;;;;4936389;29;21270;-74
2022/04/30 10:58:25;;;;;;;5.17;1.50;;;28.10;44.80;;;;;;4935666;29;20625;-74
2022/04/30 11:00:51;;;;;;;2.77;1.30;;;27.90;44.90;;;;;;4953427;29;20572;-74
2022/04/30 11:03:17;;;;;;;2.60;1.40;;;27.60;44.40;;;;;;4953237;28;20600;-74
2022/04/30 11:05:48;;;;;;;2.70;1.43;;;27.20;44.00;;;;;;4936302;29;20931;-74
2022/04/30 11:08:14;;;;;;;2.00;1.27;;;26.80;44.20;;;;;;4935646;29;20937;-74
2022/04/30 11:10:52;;;;;;;2.20;1.17;;;26.40;44.60;;;;;;4953206;28;20611;-75
2022/04/30 11:13:21;;;;;;;3.80;1.20;;;26.20;44.90;;;;;;4931677;28;20287;-74
2022/04/30 11:15:47;;;;;;;1.70;1.00;;;26.00;45.00;;;;;;4950264;28;20659;-73
2022/04/30 11:18:17;;;;;;;1.80;1.20;;;25.60;44.30;;;;;;4956336;28;20734;-74
2022/04/30 11:20:43;;;;;;;2.37;0.90;;;25.30;44.80;;;;;;4957040;28;20576;-73
2022/04/30 11:23:19;;;;;;;2.03;1.10;;;25.10;45.70;;;;;;4957156;28;21186;-73
2022/04/30 11:25:47;;;;;;;6.07;1.30;;;25.10;46.20;;;;;;4957686;28;20179;-73
2022/04/30 11:28:13;;;;;;;3.00;1.10;;;25.20;47.10;;;;;;4956647;28;21067;-74
2022/04/30 11:30:41;;;;;;;2.43;1.40;;;25.40;47.10;;;;;;4956608;28;20623;-73
2022/04/30 11:33:10;;;;;;;2.03;1.30;;;25.50;46.20;;;;;;4958818;28;20231;-74
2022/04/30 11:35:36;;;;;;;4.23;1.50;;;25.30;45.90;;;;;;4976172;28;20598;-74
2022/04/30 11:38:03;;;;;;;2.87;1.07;;;25.10;45.40;;;;;;4957862;28;21216;-74
2022/04/30 11:40:29;;;;;;;2.80;1.30;;;24.90;45.40;;;;;;4976136;28;20622;-74
2022/04/30 11:43:00;;;;;;;4.00;1.90;;;24.90;45.90;;;;;;4957718;28;20706;-74
2022/04/30 11:45:35;;;;;;;2.27;1.60;;;24.60;44.30;;;;;;4944642;28;20179;-75
2022/04/30 11:48:05;;;;;;;3.43;1.73;;;24.50;45.10;;;;;;4957796;28;20602;-76
2022/04/30 11:50:32;;;;;;;1.70;1.20;;;24.30;44.70;;;;;;4941992;28;20600;-74
2022/04/30 11:52:58;;;;;;;3.60;1.90;;;24.10;44.70;;;;;;4967206;23;20629;-74
2022/04/30 11:55:25;;;;;;;2.10;1.57;;;24.00;45.20;;;;;;4977513;28;20613;-74
2022/04/30 11:58:04;;;;;;;2.10;1.60;;;24.00;46.00;;;;;;4961797;28;20641;-75
2022/04/30 12:00:35;;;;;;;13.30;2.00;;;23.90;45.40;;;;;;4978087;28;20578;-74
2022/04/30 12:03:00;;;;;;;2.30;1.50;;;23.70;45.30;;;;;;4978001;28;20577;-74
2022/04/30 12:05:36;;;;;;;3.27;1.63;;;23.40;45.10;;;;;;4977995;28;20573;-74
2022/04/30 12:08:02;;;;;;;2.10;1.60;;;23.20;44.90;;;;;;4994568;28;20613;-74
2022/04/30 12:10:31;;;;;;;2.80;1.30;;;22.90;44.90;;;;;;4977167;28;20582;-74
2022/04/30 12:12:57;;;;;;;2.53;1.73;;;22.70;45.40;;;;;;4977377;28;20569;-73
2022/04/30 12:15:28;;;;;;;1.93;1.53;;;22.50;45.20;;;;;;4975092;28;20594;-73
2022/04/30 12:27:01;;;;;;;2.90;1.60;;;22.60;46.80;;;;;;4976220;28;20578;-74
2022/04/30 12:29:27;;;;;;;1.90;1.20;;;22.50;45.90;;;;;;4976231;28;20578;-74
2022/04/30 12:31:53;;;;;;;1.80;1.10;;;22.60;46.80;;;;;;4993864;28;20626;-74
2022/04/30 12:34:21;;;;;;;3.30;1.20;;;22.60;47.00;;;;;;4960544;28;20711;-74
2022/04/30 12:36:55;;;;;;;3.73;1.57;;;22.70;47.20;;;;;;4994460;28;20717;-74
2022/04/30 12:39:25;;;;;;;3.77;1.53;;;22.60;46.30;;;;;;4961005;28;20740;-74
2022/04/30 12:41:52;;;;;;;3.07;1.10;;;22.60;46.40;;;;;;4959920;28;20601;-74
2022/04/30 12:44:18;;;;;;;1.73;1.30;;;22.50;46.00;;;;;;4984790;28;20700;-74
2022/04/30 12:46:46;;;;;;;3.57;1.03;;;22.30;45.80;;;;;;4994177;28;21257;-74
2022/04/30 12:49:13;;;;;;;2.83;1.50;;;22.20;46.00;;;;;;4959778;28;21001;-71
2022/04/30 12:51:40;;;;;;;2.57;1.20;;;22.10;45.80;;;;;;4976197;28;20581;-73
2022/04/30 12:54:13;;;;;;;2.37;1.20;;;22.00;45.50;;;;;;4993422;28;20961;-74
2022/04/30 12:56:49;;;;;;;1.87;1.37;;;21.70;45.20;;;;;;4985456;28;20665;-74
2022/04/30 12:59:19;;;;;;;2.60;1.73;;;21.50;45.10;;;;;;4976446;28;21065;-74
2022/04/30 13:01:45;;;;;;;2.63;1.43;;;21.30;44.70;;;;;;4992397;28;20618;-74
2022/04/30 13:04:12;;;;;;;2.00;1.30;;;21.00;44.90;;;;;;4975344;28;20194;-74
2022/04/30 13:06:39;;;;;;;2.10;1.70;;;20.80;45.20;;;;;;4992915;28;20179;-74
2022/04/30 13:14:41;;;;;;;1.90;1.20;;;20.50;46.20;;;;;;4993342;28;20609;-74
2022/04/30 13:17:07;;;;;;;2.20;1.57;;;20.40;46.50;;;;;;4976515;28;20625;-74
2022/04/30 13:19:35;;;;;;;2.77;1.33;;;20.40;46.40;;;;;;4993209;28;20566;-74
2022/04/30 13:22:01;;;;;;;1.90;1.33;;;20.40;46.20;;;;;;4960078;28;20586;-74
2022/04/30 13:24:27;;;;;;;2.33;1.17;;;20.30;46.30;;;;;;4976372;28;20601;-74
2022/04/30 13:26:54;;;;;;;1.90;1.43;;;20.30;46.30;;;;;;4993792;28;21114;-74
2022/04/30 13:29:19;;;;;;;2.73;1.27;;;20.20;46.30;;;;;;4993147;28;20265;-74
2022/04/30 13:31:45;;;;;;;2.33;1.90;;;20.10;46.50;;;;;;4959673;28;20686;-74
2022/04/30 13:34:11;;;;;;;1.73;1.20;;;20.10;46.80;;;;;;4975910;28;20199;-74
2022/04/30 13:36:37;;;;;;;3.90;1.80;;;20.00;46.70;;;;;;4975780;28;20214;-74